Terminal Aerodrome Forecast
Issued by NWS Charleston, WV

Current Version | Previous Version | Graphics & Text | Print | Product List | Glossary On
Versions: 1 2 3 4 5 6 7 8 9 10 11 12 13 14 15 16 17 18 19 20 21 22 23 24 25 26
000
FTUS41 KRLX 241120
TAFEKN
TAF
KEKN 241120Z 2412/2512 00000KT 1/2SM FG OVC001
     FM241230 00000KT 2SM BR BKN001
     FM241300 00000KT 4SM BR SCT002
     FM241330 03004KT P6SM FEW250
     FM250100 00000KT P6SM SCT250
     FM250600 00000KT 4SM BR SCT250
     FM250700 00000KT 1SM BR BKN001
     FM250800 00000KT 1/4SM FG VV001=

USA.gov is the U.S. government's official web portal to all federal, state and local government web resources and services.